Vedia, Argentina
Current Conditions -  °F | °C
As of 12:00 AM on Tuesday 27 Jan 2015 (Local Time) from SAAR Reporting Station
Broken Clouds Broken Clouds  
Wind Chill: 27°   Ceiling: 20000
Heat Index: 30°   Visibility: 6mi
Dew Point: 24°   Wind: 6mph
Humidity: 84%   Direction: 70°ENE
Pressure: 29.74"   Gusts: NA
Location:  34.5°S, 61.53°W
Report Text: SAAR 270300Z 07005KT 9999 FEW030 FEW045CBSCT100 BKN200 27/24 Q1007
Loading
Personal Weather Stations






























Interactive Weather Map New forecast layout! Learn more

10-Day Weather Forecast

Advertisements
Track Severe Weather on mobile